createdAt,value
2022-09-15T00:00:32.935Z,7.85
2022-09-15T00:01:32.976Z,12.04
2022-09-15T00:02:33.085Z,-40.00
2022-09-15T00:03:33.016Z,-40.00
2022-09-15T00:04:32.885Z,6.58
2022-09-15T00:05:32.875Z,-39.96
2022-09-15T00:06:32.857Z,-40.00
2022-09-15T00:07:32.855Z,-39.96
2022-09-15T00:08:32.840Z,-40.00
2022-09-15T00:09:32.863Z,-40.00
2022-09-15T00:10:32.807Z,-40.00
2022-09-15T00:11:32.800Z,-40.00
2022-09-15T00:12:32.778Z,-39.96
2022-09-15T00:13:32.769Z,-40.00
2022-09-15T00:14:32.758Z,-40.00
2022-09-15T00:15:32.768Z,-40.00
2022-09-15T00:16:32.944Z,-40.00
2022-09-15T00:17:32.727Z,-40.00
2022-09-15T00:18:32.705Z,-40.00
2022-09-15T00:19:32.690Z,-40.00
2022-09-15T00:20:32.690Z,-40.00
2022-09-15T00:21:32.710Z,-40.00
2022-09-15T00:22:32.661Z,-40.00
2022-09-15T00:23:32.659Z,-40.00
2022-09-15T00:24:32.632Z,11.36
2022-09-15T00:25:32.626Z,-40.00
2022-09-15T00:26:32.612Z,-40.00
2022-09-15T00:27:32.621Z,-40.00
2022-09-15T00:28:32.582Z,-40.00
2022-09-15T00:29:32.563Z,-40.00
2022-09-15T00:30:32.592Z,-40.00
2022-09-15T00:31:32.572Z,-39.96
2022-09-15T00:32:32.525Z,-40.00
2022-09-15T00:33:32.633Z,-39.96
2022-09-15T00:34:32.505Z,-40.00
2022-09-15T00:35:32.511Z,-39.96
2022-09-15T00:36:32.499Z,11.66
2022-09-15T00:37:32.476Z,-39.86
2022-09-15T00:38:32.456Z,11.77
2022-09-15T00:39:32.475Z,11.81
2022-09-15T00:40:32.544Z,11.84
2022-09-15T00:41:32.417Z,11.93
2022-09-15T00:42:32.407Z,12.00
2022-09-15T00:43:32.396Z,12.04
2022-09-15T00:44:32.377Z,-40.00
2022-09-15T00:45:32.412Z,-34.85
2022-09-15T00:46:32.357Z,-40.00
2022-09-15T00:47:32.340Z,-40.00
2022-09-15T00:48:32.328Z,-39.96
2022-09-15T00:49:32.333Z,-40.00
2022-09-15T00:50:32.300Z,-39.96
2022-09-15T00:51:32.319Z,-40.00
2022-09-15T00:52:32.278Z,-40.00
2022-09-15T00:53:32.263Z,-40.00
2022-09-15T00:54:32.250Z,-39.96
2022-09-15T00:55:32.249Z,-39.96
2022-09-15T00:56:32.221Z,-40.00
2022-09-15T00:57:32.248Z,-40.00
2022-09-15T00:58:32.213Z,12.38
2022-09-15T00:59:32.192Z,12.40
2022-09-15T01:00:32.183Z,8.89
2022-09-15T01:01:32.228Z,-39.96
2022-09-15T01:02:32.210Z,-39.96
2022-09-15T01:03:32.239Z,-39.96
2022-09-15T01:04:32.131Z,-40.00
2022-09-15T01:05:32.134Z,-40.00
2022-09-15T01:06:32.105Z,12.49
2022-09-15T01:07:32.084Z,-40.00
2022-09-15T01:08:32.080Z,-40.00
2022-09-15T01:09:32.096Z,-40.00
2022-09-15T01:10:32.045Z,-40.00
2022-09-15T01:11:32.036Z,-39.96
2022-09-15T01:12:32.016Z,-39.96
2022-09-15T01:13:32.021Z,-39.96
2022-09-15T01:14:32.000Z,-39.96
2022-09-15T01:15:32.106Z,-39.96
2022-09-15T01:16:34.858Z,-39.96
2022-09-15T01:17:31.949Z,-39.96
2022-09-15T01:18:31.934Z,12.63
2022-09-15T01:19:31.923Z,-40.00
2022-09-15T01:20:31.905Z,-40.00
2022-09-15T01:21:31.932Z,-40.00
2022-09-15T01:22:31.884Z,-39.96
2022-09-15T01:23:31.878Z,-40.00
2022-09-15T01:24:31.865Z,-39.96
2022-09-15T01:25:31.859Z,-39.96
2022-09-15T01:26:31.829Z,-39.96
2022-09-15T01:27:42.177Z,12.73
2022-09-15T01:28:32.804Z,12.71
2022-09-15T01:29:31.796Z,-40.00
2022-09-15T01:30:31.777Z,-40.00
2022-09-15T01:31:31.816Z,-40.00
2022-09-15T01:32:31.749Z,12.70
2022-09-15T01:33:31.768Z,-40.00
2022-09-15T01:34:31.725Z,12.73
2022-09-15T01:35:31.723Z,-39.96
2022-09-15T01:36:31.709Z,-39.96
2022-09-15T01:37:31.689Z,-39.96
2022-09-15T01:38:31.700Z,-39.96
2022-09-15T01:39:31.701Z,-40.00
2022-09-15T01:40:31.732Z,-39.96
2022-09-15T01:41:31.664Z,-39.96
2022-09-15T01:42:31.642Z,12.85
2022-09-15T01:43:31.633Z,12.85
2022-09-15T01:44:31.617Z,-40.00
2022-09-15T01:45:31.744Z,-40.00
2022-09-15T01:46:31.602Z,12.92
2022-09-15T01:47:31.591Z,-39.96
2022-09-15T01:48:31.567Z,-39.96
2022-09-15T01:49:31.555Z,-40.00
2022-09-15T01:50:31.541Z,-40.00
2022-09-15T01:51:31.641Z,-40.00
2022-09-15T01:52:31.518Z,13.10
2022-09-15T01:53:31.507Z,13.14
2022-09-15T01:54:31.499Z,13.16
2022-09-15T01:55:31.479Z,13.17
2022-09-15T01:56:31.471Z,13.21
2022-09-15T01:57:31.479Z,13.24
2022-09-15T01:58:31.440Z,13.25
2022-09-15T01:59:31.430Z,13.28
2022-09-15T02:00:31.414Z,13.29
2022-09-15T02:01:31.437Z,-39.96
2022-09-15T02:02:31.424Z,-39.96
2022-09-15T02:03:31.494Z,-39.96
2022-09-15T02:04:31.364Z,-39.96
2022-09-15T02:05:31.362Z,-39.96
2022-09-15T02:06:31.345Z,13.43
2022-09-15T02:07:31.337Z,13.39
2022-09-15T02:08:31.313Z,13.41
2022-09-15T02:09:31.324Z,-39.96
2022-09-15T02:10:31.292Z,13.41
2022-09-15T02:11:31.282Z,13.43
2022-09-15T02:12:31.286Z,13.44
2022-09-15T02:13:31.259Z,13.44
2022-09-15T02:14:31.240Z,13.44
2022-09-15T02:15:31.271Z,13.46
2022-09-15T02:16:31.287Z,13.46
2022-09-15T02:17:31.206Z,13.47
2022-09-15T02:18:31.187Z,13.47
2022-09-15T02:19:31.190Z,13.48
2022-09-15T02:20:31.158Z,13.51
2022-09-15T02:21:31.178Z,13.50
2022-09-15T02:22:31.138Z,13.53
2022-09-15T02:23:31.129Z,13.51
2022-09-15T02:24:31.109Z,13.53
2022-09-15T02:25:31.131Z,13.53
2022-09-15T02:26:31.125Z,13.55
2022-09-15T02:27:31.110Z,13.54
2022-09-15T02:28:31.070Z,13.57
2022-09-15T02:29:31.053Z,13.57
2022-09-15T02:30:31.032Z,13.59
2022-09-15T02:31:31.072Z,13.57
2022-09-15T02:32:31.001Z,13.59
2022-09-15T02:33:31.033Z,13.59
2022-09-15T02:34:30.991Z,13.57
2022-09-15T02:35:30.974Z,13.59
2022-09-15T02:36:30.965Z,13.59
2022-09-15T02:37:30.944Z,13.59
2022-09-15T02:38:30.933Z,13.59
2022-09-15T02:39:31.041Z,13.61
2022-09-15T02:40:30.952Z,13.63
2022-09-15T02:41:30.897Z,13.61
2022-09-15T02:42:30.887Z,13.63
2022-09-15T02:43:30.876Z,13.62
2022-09-15T02:44:30.855Z,13.63
2022-09-15T02:45:31.008Z,13.62
2022-09-15T02:46:30.846Z,13.63
2022-09-15T02:47:30.817Z,13.65
2022-09-15T02:48:30.807Z,13.66
2022-09-15T02:49:30.800Z,13.66
2022-09-15T02:50:30.789Z,13.68
2022-09-15T02:51:30.803Z,13.69
2022-09-15T02:52:30.770Z,13.69
2022-09-15T02:53:30.750Z,13.71
2022-09-15T02:54:30.738Z,13.71
2022-09-15T02:55:30.719Z,13.72
2022-09-15T02:56:30.721Z,13.72
2022-09-15T02:57:30.816Z,13.73
2022-09-15T02:58:30.681Z,13.75
2022-09-15T02:59:30.662Z,13.76
2022-09-15T03:00:30.683Z,13.79
2022-09-15T03:01:30.651Z,13.80
2022-09-15T03:02:30.660Z,13.83
2022-09-15T03:03:30.636Z,13.83
2022-09-15T03:04:30.612Z,13.81
2022-09-15T03:05:30.599Z,13.84
2022-09-15T03:06:30.582Z,13.86
2022-09-15T03:07:30.563Z,13.86
2022-09-15T03:08:30.552Z,13.86
2022-09-15T03:09:30.574Z,13.86
2022-09-15T03:10:30.540Z,13.88
2022-09-15T03:11:30.514Z,13.87
2022-09-15T03:12:30.514Z,13.90
2022-09-15T03:13:30.494Z,13.91
2022-09-15T03:14:30.489Z,13.93
2022-09-15T03:15:30.607Z,13.91
2022-09-15T03:16:30.572Z,13.91
2022-09-15T03:17:30.444Z,13.90
2022-09-15T03:18:30.436Z,13.90
2022-09-15T03:19:30.421Z,13.91
2022-09-15T03:20:30.472Z,13.90
2022-09-15T03:21:30.524Z,13.91
2022-09-15T03:22:30.378Z,13.91
2022-09-15T03:23:30.367Z,13.91
2022-09-15T03:24:30.360Z,13.90
2022-09-15T03:25:30.340Z,13.91
2022-09-15T03:26:30.335Z,13.90
2022-09-15T03:27:30.429Z,13.90
2022-09-15T03:28:30.309Z,13.90
2022-09-15T03:29:30.291Z,13.91
2022-09-15T03:30:30.291Z,13.88
2022-09-15T03:31:30.305Z,13.88
2022-09-15T03:32:30.258Z,13.88
2022-09-15T03:33:30.262Z,13.87
2022-09-15T03:34:30.241Z,13.87
2022-09-15T03:35:30.221Z,13.88
2022-09-15T03:36:30.213Z,13.87
2022-09-15T03:37:30.202Z,13.86
2022-09-15T03:38:30.184Z,13.88
2022-09-15T03:39:30.290Z,13.88
2022-09-15T03:40:30.191Z,13.88
2022-09-15T03:41:30.144Z,13.90
2022-09-15T03:42:30.134Z,13.90
2022-09-15T03:43:30.114Z,13.90
2022-09-15T03:44:30.104Z,13.90
2022-09-15T03:45:30.183Z,13.91
2022-09-15T03:46:30.086Z,13.93
2022-09-15T03:47:30.067Z,13.91
2022-09-15T03:48:30.061Z,13.90
2022-09-15T03:49:30.036Z,13.88
2022-09-15T03:50:30.035Z,13.88
2022-09-15T03:51:30.048Z,13.87
2022-09-15T03:52:30.023Z,13.87
2022-09-15T03:53:29.988Z,13.90
2022-09-15T03:54:29.979Z,13.88
2022-09-15T03:55:29.961Z,13.90
2022-09-15T03:56:29.957Z,13.91
2022-09-15T03:57:30.001Z,13.93
2022-09-15T03:58:30.935Z,13.91
2022-09-15T03:59:29.919Z,13.90
2022-09-15T04:00:29.953Z,13.91
2022-09-15T04:01:29.893Z,13.90
2022-09-15T04:02:29.890Z,13.91
2022-09-15T04:03:29.903Z,13.90
2022-09-15T04:04:29.852Z,13.93
2022-09-15T04:05:29.840Z,13.91
2022-09-15T04:06:29.847Z,13.93
2022-09-15T04:07:29.821Z,13.91
2022-09-15T04:08:29.802Z,13.91
2022-09-15T04:09:29.908Z,13.91
2022-09-15T04:10:29.773Z,13.91
2022-09-15T04:11:29.770Z,13.91
2022-09-15T04:12:29.753Z,13.91
2022-09-15T04:13:29.744Z,13.91
2022-09-15T04:14:29.739Z,13.91
2022-09-15T04:15:29.756Z,13.93
2022-09-15T04:16:29.799Z,13.90
2022-09-15T04:17:29.695Z,13.91
2022-09-15T04:18:29.675Z,13.94
2022-09-15T04:19:29.668Z,13.94
2022-09-15T04:20:29.647Z,13.93
2022-09-15T04:21:29.677Z,13.93
2022-09-15T04:22:29.628Z,13.93
2022-09-15T04:23:29.629Z,13.93
2022-09-15T04:24:29.603Z,13.91
2022-09-15T04:25:29.580Z,13.90
2022-09-15T04:26:29.582Z,13.91
2022-09-15T04:27:29.579Z,13.90
2022-09-15T04:28:29.550Z,13.90
2022-09-15T04:29:29.533Z,13.88
2022-09-15T04:30:29.520Z,13.90
2022-09-15T04:31:29.567Z,13.90
2022-09-15T04:32:29.505Z,13.90
2022-09-15T04:33:29.601Z,13.90
2022-09-15T04:34:29.474Z,13.90
2022-09-15T04:35:29.461Z,13.93
2022-09-15T04:36:29.444Z,13.94
2022-09-15T04:37:29.432Z,13.98
2022-09-15T04:38:29.425Z,13.99
2022-09-15T04:39:29.443Z,13.99
2022-09-15T04:40:29.427Z,13.98
2022-09-15T04:41:29.385Z,13.98
2022-09-15T04:42:29.373Z,13.94
2022-09-15T04:43:29.355Z,13.93
2022-09-15T04:44:29.344Z,13.94
2022-09-15T04:45:29.378Z,13.93
2022-09-15T04:46:29.350Z,13.93
2022-09-15T04:47:29.308Z,13.93
2022-09-15T04:48:29.296Z,13.93
2022-09-15T04:49:29.288Z,13.93
2022-09-15T04:50:29.276Z,13.93
2022-09-15T04:51:29.286Z,13.93
2022-09-15T04:52:29.251Z,13.94
2022-09-15T04:53:29.235Z,13.96
2022-09-15T04:54:29.226Z,13.96
2022-09-15T04:55:29.212Z,13.94
2022-09-15T04:56:29.199Z,13.96
2022-09-15T04:57:29.304Z,13.96
2022-09-15T04:58:29.179Z,13.96
2022-09-15T04:59:29.180Z,13.96
2022-09-15T05:00:29.157Z,13.98
2022-09-15T05:01:29.150Z,13.98
2022-09-15T05:02:29.158Z,13.98
2022-09-15T05:03:29.211Z,13.98
2022-09-15T05:04:29.108Z,13.99
2022-09-15T05:05:29.082Z,14.01
2022-09-15T05:06:29.082Z,14.02
2022-09-15T05:07:29.061Z,14.04
2022-09-15T05:08:29.044Z,14.04
2022-09-15T05:09:29.133Z,14.04
2022-09-15T05:10:29.023Z,14.04
2022-09-15T05:11:29.012Z,14.06
2022-09-15T05:12:29.016Z,14.06
2022-09-15T05:13:28.984Z,14.05
2022-09-15T05:14:28.983Z,14.06
2022-09-15T05:15:29.075Z,14.06
2022-09-15T05:16:29.006Z,14.08
2022-09-15T05:17:28.935Z,14.09
2022-09-15T05:18:28.927Z,14.11
2022-09-15T05:19:28.907Z,14.11
2022-09-15T05:20:28.996Z,14.11
2022-09-15T05:21:28.908Z,14.09
2022-09-15T05:22:28.868Z,14.11
2022-09-15T05:23:28.857Z,14.11
2022-09-15T05:24:28.838Z,14.12
2022-09-15T05:25:28.838Z,14.13
2022-09-15T05:26:28.846Z,14.13
2022-09-15T05:27:28.909Z,14.16
2022-09-15T05:28:28.839Z,14.17
2022-09-15T05:29:28.784Z,14.16
2022-09-15T05:30:38.900Z,14.17
2022-09-15T05:31:29.777Z,14.17
2022-09-15T05:32:28.760Z,14.17
2022-09-15T05:33:28.759Z,14.19
2022-09-15T05:34:28.721Z,14.21
2022-09-15T05:35:28.709Z,14.21
2022-09-15T05:36:28.712Z,14.23
2022-09-15T05:37:28.682Z,14.24
2022-09-15T05:38:28.671Z,14.24
2022-09-15T05:39:28.701Z,14.27
2022-09-15T05:40:28.701Z,14.26
2022-09-15T05:41:28.643Z,14.27
2022-09-15T05:42:28.624Z,14.26
2022-09-15T05:43:28.604Z,14.24
2022-09-15T05:44:28.595Z,14.27
2022-09-15T05:45:28.705Z,14.27
2022-09-15T05:46:28.614Z,14.29
2022-09-15T05:47:28.556Z,14.29
2022-09-15T05:48:28.545Z,14.31
2022-09-15T05:49:28.536Z,14.34
2022-09-15T05:50:28.516Z,14.35
2022-09-15T05:51:28.539Z,14.36
2022-09-15T05:52:28.497Z,14.36
2022-09-15T05:53:28.495Z,14.38
2022-09-15T05:54:28.472Z,14.38
2022-09-15T05:55:28.449Z,14.38
2022-09-15T05:56:28.462Z,14.41
2022-09-15T05:57:28.460Z,14.44
2022-09-15T05:58:28.430Z,14.44
2022-09-15T05:59:28.399Z,14.42
2022-09-15T06:00:28.408Z,14.46
2022-09-15T06:01:28.465Z,14.49
2022-09-15T06:02:28.414Z,14.49
2022-09-15T06:03:30.945Z,14.54
2022-09-15T06:04:28.343Z,14.57
2022-09-15T06:05:28.331Z,14.56
2022-09-15T06:06:28.325Z,14.60
2022-09-15T06:07:28.311Z,14.63
2022-09-15T06:08:28.293Z,14.67
2022-09-15T06:09:28.323Z,14.72
2022-09-15T06:10:28.264Z,14.72
2022-09-15T06:11:28.253Z,14.72
2022-09-15T06:12:28.243Z,14.71
2022-09-15T06:13:28.225Z,14.69
2022-09-15T06:14:28.215Z,14.64
2022-09-15T06:15:28.305Z,14.66
2022-09-15T06:16:28.231Z,14.67
2022-09-15T06:17:28.177Z,14.71
2022-09-15T06:18:28.166Z,14.69
2022-09-15T06:19:28.148Z,14.75
2022-09-15T06:20:28.146Z,14.82
2022-09-15T06:21:28.161Z,14.86
2022-09-15T06:22:28.129Z,14.94
2022-09-15T06:23:28.098Z,15.01
2022-09-15T06:24:28.099Z,15.07
2022-09-15T06:25:28.079Z,15.11
2022-09-15T06:26:28.069Z,15.18
2022-09-15T06:27:28.159Z,15.19
2022-09-15T06:28:28.049Z,15.19
2022-09-15T06:29:28.030Z,15.23
2022-09-15T06:30:28.018Z,15.31
2022-09-15T06:31:28.088Z,15.34
2022-09-15T06:32:28.982Z,15.34
2022-09-15T06:33:28.000Z,15.35
2022-09-15T06:34:27.972Z,15.44
2022-09-15T06:35:27.952Z,15.51
2022-09-15T06:36:27.943Z,15.59
2022-09-15T06:37:27.933Z,15.62
2022-09-15T06:38:27.914Z,15.66
2022-09-15T06:39:27.948Z,15.66
2022-09-15T06:40:27.943Z,15.68
2022-09-15T06:41:27.886Z,15.62
2022-09-15T06:42:27.874Z,15.59
2022-09-15T06:43:27.845Z,15.59
2022-09-15T06:44:27.845Z,15.56
2022-09-15T06:45:27.996Z,15.51
2022-09-15T06:46:27.889Z,15.43
2022-09-15T06:47:27.806Z,15.41
2022-09-15T06:48:27.787Z,15.40
2022-09-15T06:49:27.777Z,15.38
2022-09-15T06:50:27.758Z,15.40
2022-09-15T06:51:27.777Z,15.40
2022-09-15T06:52:27.737Z,15.43
2022-09-15T06:53:27.719Z,15.43
2022-09-15T06:54:27.735Z,15.38
2022-09-15T06:55:27.699Z,15.37
2022-09-15T06:56:27.691Z,15.37
2022-09-15T06:57:27.700Z,15.38
2022-09-15T06:58:27.660Z,15.38
2022-09-15T06:59:27.640Z,15.40
2022-09-15T07:00:27.633Z,15.43
2022-09-15T07:01:27.621Z,15.49
2022-09-15T07:02:27.659Z,15.56
2022-09-15T07:03:27.822Z,15.62
2022-09-15T07:04:27.583Z,15.70
2022-09-15T07:05:27.572Z,15.68
2022-09-15T07:06:27.552Z,15.73
2022-09-15T07:07:27.546Z,15.76
2022-09-15T07:08:27.535Z,15.77
2022-09-15T07:09:27.563Z,15.84
2022-09-15T07:10:27.515Z,15.89
2022-09-15T07:11:27.495Z,15.91
2022-09-15T07:12:27.487Z,15.93
2022-09-15T07:13:27.480Z,15.99
2022-09-15T07:14:27.477Z,15.99
2022-09-15T07:15:27.467Z,15.98
2022-09-15T07:16:28.420Z,16.08
2022-09-15T07:17:27.418Z,16.14
2022-09-15T07:18:27.414Z,16.11
2022-09-15T07:19:27.387Z,16.03
2022-09-15T07:20:27.390Z,16.11
2022-09-15T07:21:27.419Z,16.22
2022-09-15T07:22:27.369Z,16.32
2022-09-15T07:23:27.340Z,16.40
2022-09-15T07:24:27.344Z,16.48
2022-09-15T07:25:27.310Z,16.55
2022-09-15T07:26:27.300Z,16.48
2022-09-15T07:27:27.403Z,16.36
2022-09-15T07:28:27.274Z,16.36
2022-09-15T07:29:27.297Z,16.42
2022-09-15T07:30:27.257Z,16.47
2022-09-15T07:31:27.289Z,16.66
2022-09-15T07:32:27.263Z,16.77
2022-09-15T07:33:27.256Z,16.91
2022-09-15T07:34:27.224Z,16.95
2022-09-15T07:35:27.186Z,16.91
2022-09-15T07:36:27.175Z,16.90
2022-09-15T07:37:28.114Z,16.85
2022-09-15T07:38:27.147Z,16.78
2022-09-15T07:39:27.255Z,16.63
2022-09-15T07:40:27.232Z,16.75
2022-09-15T07:41:27.118Z,16.80
2022-09-15T07:42:27.111Z,16.98
2022-09-15T07:43:27.092Z,17.03
2022-09-15T07:44:27.068Z,17.12
2022-09-15T07:45:27.137Z,17.17
2022-09-15T07:46:27.050Z,17.12
2022-09-15T07:47:27.030Z,17.10
2022-09-15T07:48:27.020Z,16.91
2022-09-15T07:49:27.009Z,16.59
2022-09-15T07:50:26.990Z,16.57
2022-09-15T07:51:27.123Z,16.63
2022-09-15T07:52:26.970Z,16.57
2022-09-15T07:53:26.961Z,16.55
2022-09-15T07:54:26.968Z,16.54
2022-09-15T07:55:26.940Z,16.52
2022-09-15T07:56:26.919Z,16.57
2022-09-15T07:57:26.942Z,16.59
2022-09-15T07:58:26.892Z,16.67
2022-09-15T07:59:26.905Z,16.73
2022-09-15T08:00:26.926Z,16.87
2022-09-15T08:01:26.876Z,16.98
2022-09-15T08:02:26.922Z,17.06
2022-09-15T08:03:26.935Z,17.10
2022-09-15T08:04:26.815Z,17.15
2022-09-15T08:05:26.806Z,17.32
2022-09-15T08:06:26.796Z,17.35
2022-09-15T08:07:26.783Z,17.18
2022-09-15T08:08:26.764Z,17.30
2022-09-15T08:09:26.806Z,17.32
2022-09-15T08:10:26.737Z,17.38
2022-09-15T08:11:26.734Z,17.45
2022-09-15T08:12:26.710Z,17.49
2022-09-15T08:13:26.698Z,17.43
2022-09-15T08:14:26.691Z,17.45
2022-09-15T08:15:26.799Z,17.36
2022-09-15T08:16:26.762Z,17.35
2022-09-15T08:17:26.652Z,17.45
2022-09-15T08:18:26.640Z,17.54
2022-09-15T08:19:26.631Z,17.68
2022-09-15T08:20:26.612Z,17.76
2022-09-15T08:21:26.631Z,17.76
2022-09-15T08:22:26.586Z,17.70
2022-09-15T08:23:26.573Z,17.68
2022-09-15T08:24:26.562Z,17.62
2022-09-15T08:25:26.555Z,17.45
2022-09-15T08:26:26.573Z,17.46
2022-09-15T08:27:26.672Z,17.57
2022-09-15T08:28:26.506Z,17.58
2022-09-15T08:29:26.504Z,17.60
2022-09-15T08:30:26.498Z,17.68
2022-09-15T08:31:26.598Z,17.60
2022-09-15T08:32:26.464Z,17.45
2022-09-15T08:33:26.483Z,17.51
2022-09-15T08:34:26.437Z,17.47
2022-09-15T08:35:26.427Z,17.40
2022-09-15T08:36:26.418Z,17.45
2022-09-15T08:37:26.407Z,17.33
2022-09-15T08:38:26.389Z,17.39
2022-09-15T08:39:26.398Z,17.58
2022-09-15T08:40:26.447Z,17.77
2022-09-15T08:41:26.350Z,17.87
2022-09-15T08:42:26.340Z,17.79
2022-09-15T08:43:26.332Z,17.92
2022-09-15T08:44:26.310Z,18.16
2022-09-15T08:45:26.412Z,18.16
2022-09-15T08:46:26.347Z,18.14
2022-09-15T08:47:26.273Z,18.16
2022-09-15T08:48:26.264Z,18.35
2022-09-15T08:49:41.200Z,18.41
2022-09-15T08:50:27.425Z,18.34
2022-09-15T08:51:26.223Z,18.44
2022-09-15T08:52:26.212Z,18.66
2022-09-15T08:53:26.231Z,18.75
2022-09-15T08:54:26.185Z,18.83
2022-09-15T08:55:26.197Z,18.87
2022-09-15T08:56:26.175Z,18.99
2022-09-15T08:57:26.157Z,19.01
2022-09-15T08:58:26.156Z,19.17
2022-09-15T08:59:26.127Z,18.86
2022-09-15T09:00:26.109Z,18.91
2022-09-15T09:01:26.165Z,18.82
2022-09-15T09:02:26.205Z,18.72
2022-09-15T09:03:26.081Z,18.93
2022-09-15T09:04:26.062Z,18.76
2022-09-15T09:05:26.049Z,18.72
2022-09-15T09:06:26.031Z,18.42
2022-09-15T09:07:26.023Z,18.69
2022-09-15T09:08:26.040Z,18.96
2022-09-15T09:09:26.038Z,19.01
2022-09-15T09:10:25.981Z,19.10
2022-09-15T09:11:25.975Z,19.02
2022-09-15T09:12:26.011Z,19.02
2022-09-15T09:13:25.951Z,18.91
2022-09-15T09:14:26.054Z,18.74
2022-09-15T09:15:26.006Z,18.78
2022-09-15T09:16:25.904Z,18.75
2022-09-15T09:17:25.894Z,18.72
2022-09-15T09:18:25.884Z,18.62
2022-09-15T09:19:30.038Z,18.68
2022-09-15T09:20:26.896Z,18.68
2022-09-15T09:21:25.855Z,18.71
2022-09-15T09:22:25.924Z,18.68
2022-09-15T09:23:25.843Z,18.68
2022-09-15T09:24:25.806Z,18.78
2022-09-15T09:25:28.151Z,18.89
2022-09-15T09:26:25.817Z,18.99
2022-09-15T09:27:25.774Z,18.97
2022-09-15T09:28:25.761Z,18.89
2022-09-15T09:29:25.750Z,18.74
2022-09-15T09:30:25.727Z,18.68
2022-09-15T09:31:25.777Z,18.74
2022-09-15T09:32:25.787Z,18.82
2022-09-15T09:33:25.701Z,18.84
2022-09-15T09:34:25.673Z,18.79
2022-09-15T09:35:25.681Z,18.90
2022-09-15T09:36:25.652Z,18.69
2022-09-15T09:37:25.642Z,18.57
2022-09-15T09:38:25.803Z,18.54
2022-09-15T09:39:25.622Z,18.51
2022-09-15T09:40:25.645Z,18.71
2022-09-15T09:41:25.593Z,18.87
2022-09-15T09:42:25.580Z,18.78
2022-09-15T09:43:25.565Z,18.69
2022-09-15T09:44:25.589Z,18.56
2022-09-15T09:45:25.548Z,18.47
2022-09-15T09:46:25.662Z,18.42
2022-09-15T09:47:25.544Z,18.32
2022-09-15T09:48:25.497Z,18.49
2022-09-15T09:49:25.490Z,18.69
2022-09-15T09:50:25.589Z,18.90
2022-09-15T09:51:25.467Z,19.02
2022-09-15T09:52:25.532Z,19.12
2022-09-15T09:53:25.438Z,19.24
2022-09-15T09:54:25.434Z,19.05
2022-09-15T09:55:25.411Z,19.17
2022-09-15T09:56:25.431Z,19.46
2022-09-15T09:57:25.391Z,19.65
2022-09-15T09:58:25.402Z,19.92
2022-09-15T09:59:25.380Z,19.87
2022-09-15T10:00:25.354Z,19.94
2022-09-15T10:01:25.427Z,19.87
2022-09-15T10:02:25.362Z,20.17
2022-09-15T10:03:29.283Z,20.34
2022-09-15T10:04:26.374Z,19.95
2022-09-15T10:05:25.293Z,20.00
2022-09-15T10:06:25.274Z,19.75
2022-09-15T10:07:25.266Z,19.83
2022-09-15T10:08:25.277Z,19.92
2022-09-15T10:09:27.843Z,19.85
2022-09-15T10:10:25.228Z,19.40
2022-09-15T10:11:25.227Z,19.40
2022-09-15T10:12:25.203Z,19.43
2022-09-15T10:13:25.208Z,19.49
2022-09-15T10:14:25.307Z,19.71
2022-09-15T10:15:25.172Z,19.61
2022-09-15T10:16:25.225Z,19.47
2022-09-15T10:17:25.139Z,19.40
2022-09-15T10:18:25.128Z,19.38
2022-09-15T10:19:25.121Z,19.35
2022-09-15T10:20:25.219Z,19.50
2022-09-15T10:21:25.088Z,19.55
2022-09-15T10:22:25.070Z,19.39
2022-09-15T10:23:25.062Z,19.47
2022-09-15T10:24:25.050Z,19.55
2022-09-15T10:25:35.547Z,19.27
2022-09-15T10:26:26.053Z,19.31
2022-09-15T10:27:25.013Z,19.40
2022-09-15T10:28:25.005Z,19.30
2022-09-15T10:29:25.047Z,19.45
2022-09-15T10:30:24.978Z,19.40
2022-09-15T10:31:25.025Z,19.53
2022-09-15T10:32:25.696Z,19.71
2022-09-15T10:33:25.895Z,19.50
2022-09-15T10:34:24.935Z,19.53
2022-09-15T10:35:24.908Z,19.46
2022-09-15T10:36:24.897Z,19.43
2022-09-15T10:37:24.890Z,19.60
2022-09-15T10:38:24.998Z,19.57
2022-09-15T10:39:24.858Z,19.45
2022-09-15T10:40:24.881Z,19.47
2022-09-15T10:41:24.829Z,19.58
2022-09-15T10:42:24.822Z,19.70
2022-09-15T10:43:24.810Z,19.82
2022-09-15T10:44:24.901Z,19.76
2022-09-15T10:45:24.853Z,19.72
2022-09-15T10:46:24.774Z,19.60
2022-09-15T10:47:24.761Z,19.76
2022-09-15T10:48:24.742Z,19.79
2022-09-15T10:49:24.732Z,19.87
2022-09-15T10:50:24.843Z,19.92
2022-09-15T10:51:24.705Z,19.89
2022-09-15T10:52:24.695Z,19.89
2022-09-15T10:53:24.698Z,20.01
2022-09-15T10:54:24.666Z,20.10
2022-09-15T10:55:42.167Z,20.20
2022-09-15T10:56:25.665Z,20.44
2022-09-15T10:57:24.641Z,20.61
2022-09-15T10:58:24.625Z,20.79
2022-09-15T10:59:24.628Z,20.54
2022-09-15T11:00:24.587Z,20.33
2022-09-15T11:01:24.640Z,20.27
2022-09-15T11:02:25.699Z,19.98
2022-09-15T11:03:24.560Z,19.87
2022-09-15T11:04:24.549Z,19.79
2022-09-15T11:05:24.541Z,19.79
2022-09-15T11:06:24.532Z,19.53
2022-09-15T11:07:24.509Z,19.50
2022-09-15T11:08:24.680Z,19.57
2022-09-15T11:09:24.481Z,19.58
2022-09-15T11:10:24.470Z,19.47
2022-09-15T11:11:24.462Z,19.60
2022-09-15T11:12:28.914Z,19.70
2022-09-15T11:13:24.443Z,19.49
2022-09-15T11:14:24.443Z,19.68
2022-09-15T11:15:24.415Z,19.98
2022-09-15T11:16:24.459Z,20.07
2022-09-15T11:17:24.375Z,20.12
2022-09-15T11:18:24.367Z,19.86
2022-09-15T11:19:24.355Z,19.42
2022-09-15T11:20:24.457Z,19.40
2022-09-15T11:21:24.327Z,19.53
2022-09-15T11:22:24.327Z,19.64
2022-09-15T11:23:24.310Z,19.35
2022-09-15T11:24:24.296Z,19.39
2022-09-15T11:25:24.279Z,19.50
2022-09-15T11:26:24.298Z,19.30
2022-09-15T11:27:24.269Z,19.46
2022-09-15T11:28:24.239Z,19.78
2022-09-15T11:29:24.233Z,19.87
2022-09-15T11:30:24.221Z,20.12
2022-09-15T11:31:24.267Z,20.08
2022-09-15T11:32:24.223Z,19.82
2022-09-15T11:33:24.171Z,19.86
2022-09-15T11:34:24.175Z,19.70
2022-09-15T11:35:24.163Z,19.83
2022-09-15T11:36:24.144Z,19.62
2022-09-15T11:37:24.142Z,19.62
2022-09-15T11:38:24.160Z,19.61
2022-09-15T11:39:24.112Z,19.62
2022-09-15T11:40:24.126Z,19.58
2022-09-15T11:41:24.076Z,19.60
2022-09-15T11:42:25.034Z,19.38
2022-09-15T11:43:24.060Z,19.31
2022-09-15T11:44:24.146Z,19.24
2022-09-15T11:45:24.046Z,19.32
2022-09-15T11:46:24.064Z,19.27
2022-09-15T11:47:24.007Z,19.21
2022-09-15T11:48:23.989Z,19.38
2022-09-15T11:49:23.978Z,19.60
2022-09-15T11:50:23.998Z,19.82
2022-09-15T11:51:23.949Z,19.82
2022-09-15T11:52:23.940Z,19.52
2022-09-15T11:53:23.928Z,19.53
2022-09-15T11:54:23.910Z,19.40
2022-09-15T11:55:23.906Z,19.46
2022-09-15T11:56:24.002Z,19.57
2022-09-15T11:57:23.891Z,19.70
2022-09-15T11:58:23.863Z,19.86
2022-09-15T11:59:23.843Z,20.08
2022-09-15T12:00:23.834Z,20.05
2022-09-15T12:01:23.824Z,20.27
2022-09-15T12:02:23.970Z,20.44
2022-09-15T12:03:23.796Z,20.35
2022-09-15T12:04:23.795Z,20.56
2022-09-15T12:05:23.766Z,20.57
2022-09-15T12:06:23.766Z,20.60
2022-09-15T12:07:23.746Z,20.44
2022-09-15T12:08:23.857Z,20.48
2022-09-15T12:09:23.718Z,20.44
2022-09-15T12:10:23.726Z,19.83
2022-09-15T12:11:23.699Z,19.87
2022-09-15T12:12:26.108Z,19.78
2022-09-15T12:13:23.669Z,19.58
2022-09-15T12:14:23.689Z,19.38
2022-09-15T12:15:23.652Z,19.34
2022-09-15T12:16:23.682Z,19.34
2022-09-15T12:17:23.620Z,19.17
2022-09-15T12:18:41.764Z,19.01
2022-09-15T12:19:24.629Z,19.01
2022-09-15T12:20:23.584Z,19.09
2022-09-15T12:21:23.573Z,19.20
2022-09-15T12:22:23.562Z,19.31
2022-09-15T12:23:23.545Z,19.28
2022-09-15T12:24:23.534Z,19.38
2022-09-15T12:25:23.643Z,19.38
2022-09-15T12:26:23.506Z,19.24
2022-09-15T12:27:23.494Z,19.17
2022-09-15T12:28:23.531Z,19.30
2022-09-15T12:29:23.465Z,19.42
2022-09-15T12:30:23.456Z,19.55
2022-09-15T12:31:23.622Z,19.72
2022-09-15T12:32:23.438Z,19.52
2022-09-15T12:33:23.427Z,19.43
2022-09-15T12:34:23.419Z,19.46
2022-09-15T12:35:23.402Z,19.27
2022-09-15T12:36:23.379Z,19.46
2022-09-15T12:37:23.469Z,19.49
2022-09-15T12:38:23.359Z,19.58
2022-09-15T12:39:23.341Z,19.78
2022-09-15T12:40:23.359Z,19.71
2022-09-15T12:41:23.321Z,19.82
2022-09-15T12:42:23.306Z,19.83
2022-09-15T12:43:23.311Z,19.90
2022-09-15T12:44:23.281Z,19.89
2022-09-15T12:45:23.280Z,20.05
2022-09-15T12:46:23.318Z,20.04
2022-09-15T12:47:23.255Z,19.98
2022-09-15T12:48:23.230Z,20.04
2022-09-15T12:49:23.274Z,20.07